createdAt,value
2022-12-26T00:01:32.261Z,70.60
2022-12-26T00:03:34.265Z,70.70
2022-12-26T00:05:37.036Z,70.60
2022-12-26T00:07:38.688Z,70.60
2022-12-26T00:09:40.440Z,70.40
2022-12-26T00:11:42.100Z,70.60
2022-12-26T00:13:47.600Z,70.40
2022-12-26T00:15:49.465Z,70.40
2022-12-26T00:17:52.467Z,70.40
2022-12-26T00:19:54.163Z,70.30
2022-12-26T00:21:57.502Z,70.40
2022-12-26T00:23:59.584Z,70.60
2022-12-26T00:26:09.479Z,70.50
2022-12-26T00:28:11.189Z,70.50
2022-12-26T00:30:13.552Z,70.50
2022-12-26T00:32:15.182Z,70.50
2022-12-26T00:34:16.894Z,70.40
2022-12-26T00:36:29.667Z,70.90
2022-12-26T00:38:31.650Z,70.70
2022-12-26T00:40:33.481Z,70.50
2022-12-26T00:42:35.557Z,70.50
2022-12-26T00:44:37.232Z,70.70
2022-12-26T00:46:38.866Z,70.70
2022-12-26T00:48:40.561Z,70.60
2022-12-26T00:50:42.315Z,70.80
2022-12-26T00:52:43.932Z,70.60
2022-12-26T00:54:45.799Z,70.80
2022-12-26T00:56:47.533Z,70.40
2022-12-26T00:58:49.212Z,70.40
2022-12-26T01:00:51.024Z,70.70
2022-12-26T01:02:52.957Z,70.50
2022-12-26T01:04:54.624Z,70.30
2022-12-26T01:06:56.237Z,70.60
2022-12-26T01:08:59.455Z,70.40
2022-12-26T01:11:09.208Z,70.30
2022-12-26T01:13:11.049Z,70.30
2022-12-26T01:15:12.755Z,70.30
2022-12-26T01:17:14.514Z,69.80
2022-12-26T01:19:16.231Z,70.10
2022-12-26T01:21:17.906Z,70.20
2022-12-26T01:23:19.915Z,70.10
2022-12-26T01:25:22.119Z,70.10
2022-12-26T01:27:24.444Z,69.70
2022-12-26T01:29:26.319Z,69.70
2022-12-26T01:31:28.457Z,69.70
2022-12-26T01:33:31.116Z,69.60
2022-12-26T01:35:32.973Z,69.50
2022-12-26T01:37:34.590Z,69.80
2022-12-26T01:39:36.306Z,69.40
2022-12-26T01:41:37.976Z,69.60
2022-12-26T01:43:49.743Z,68.90
2022-12-26T01:45:52.285Z,69.20
2022-12-26T01:48:01.853Z,69.30
2022-12-26T01:50:04.668Z,69.30
2022-12-26T01:52:07.951Z,70.00
2022-12-26T01:54:40.459Z,69.40
2022-12-26T01:56:36.421Z,69.20
2022-12-26T01:58:41.917Z,69.20
2022-12-26T02:00:43.834Z,69.40
2022-12-26T02:03:04.523Z,69.20
2022-12-26T02:05:24.859Z,69.10
2022-12-26T02:07:26.722Z,69.00
2022-12-26T02:09:28.357Z,69.50
2022-12-26T02:11:42.243Z,69.40
2022-12-26T02:13:43.907Z,69.50
2022-12-26T02:15:45.729Z,69.10
2022-12-26T02:17:47.368Z,69.10
2022-12-26T02:20:10.743Z,69.10
2022-12-26T02:22:12.345Z,69.30
2022-12-26T02:24:13.964Z,69.30
2022-12-26T02:26:15.514Z,69.50
2022-12-26T02:28:35.183Z,68.80
2022-12-26T02:30:41.583Z,68.80
2022-12-26T02:33:01.731Z,68.60
2022-12-26T02:35:15.723Z,68.80
2022-12-26T02:37:37.601Z,68.80
2022-12-26T02:39:46.410Z,69.10
2022-12-26T02:41:56.044Z,69.00
2022-12-26T02:44:55.251Z,68.90
2022-12-26T02:47:12.763Z,69.30
2022-12-26T02:49:17.167Z,68.70
2022-12-26T02:51:51.653Z,68.90
2022-12-26T02:54:19.339Z,69.00
2022-12-26T02:56:49.672Z,68.90
2022-12-26T02:59:17.431Z,68.80
2022-12-26T03:01:43.313Z,68.70
2022-12-26T03:04:05.822Z,68.80
2022-12-26T03:06:33.812Z,69.00
2022-12-26T03:08:59.948Z,68.90
2022-12-26T03:11:20.956Z,69.10
2022-12-26T03:13:26.175Z,69.10
2022-12-26T03:15:29.426Z,69.00
2022-12-26T03:17:31.060Z,68.80
2022-12-26T03:19:33.192Z,68.80
2022-12-26T03:21:38.503Z,68.70
2022-12-26T03:23:42.910Z,68.80
2022-12-26T03:26:04.927Z,68.70
2022-12-26T03:28:06.596Z,68.80
2022-12-26T03:30:27.431Z,68.90
2022-12-26T03:32:41.377Z,68.80
2022-12-26T03:34:43.733Z,69.00
2022-12-26T03:37:00.485Z,69.10
2022-12-26T03:39:11.045Z,69.00
2022-12-26T03:41:37.063Z,69.10
2022-12-26T03:44:06.902Z,69.00
2022-12-26T03:46:43.009Z,69.00
2022-12-26T03:49:12.363Z,68.50
2022-12-26T03:51:37.897Z,68.80
2022-12-26T03:54:08.002Z,68.90
2022-12-26T03:56:36.740Z,68.70
2022-12-26T03:59:04.158Z,69.00
2022-12-26T04:01:26.963Z,68.70
2022-12-26T04:03:49.005Z,68.70
2022-12-26T04:06:11.145Z,68.70
2022-12-26T04:08:39.946Z,68.80
2022-12-26T04:11:02.825Z,68.70
2022-12-26T04:13:24.815Z,68.40
2022-12-26T04:15:52.042Z,68.70
2022-12-26T04:18:16.105Z,68.80
2022-12-26T04:20:24.761Z,69.20
2022-12-26T04:23:00.589Z,68.80
2022-12-26T04:25:50.761Z,68.90
2022-12-26T04:28:08.421Z,68.80
2022-12-26T04:30:29.037Z,68.80
2022-12-26T04:32:55.504Z,68.70
2022-12-26T04:35:22.669Z,69.10
2022-12-26T04:37:44.573Z,68.90
2022-12-26T04:40:07.872Z,68.80
2022-12-26T04:42:28.458Z,68.80
2022-12-26T04:44:30.453Z,68.70
2022-12-26T04:46:34.340Z,68.80
2022-12-26T04:49:00.536Z,68.80
2022-12-26T04:51:02.109Z,68.90
2022-12-26T04:53:03.924Z,68.80
2022-12-26T04:55:05.742Z,68.70
2022-12-26T04:57:07.649Z,68.90
2022-12-26T04:59:09.291Z,68.60
2022-12-26T05:01:29.590Z,68.90
2022-12-26T05:03:50.328Z,68.60
2022-12-26T05:06:14.955Z,68.70
2022-12-26T05:08:43.365Z,69.00
2022-12-26T05:10:45.077Z,69.70
2022-12-26T05:12:46.872Z,68.70
2022-12-26T05:14:48.545Z,68.80
2022-12-26T05:17:08.925Z,68.60
2022-12-26T05:19:29.539Z,68.60
2022-12-26T05:21:50.234Z,69.20
2022-12-26T05:24:10.488Z,68.40
2022-12-26T05:26:41.620Z,68.40
2022-12-26T05:28:43.592Z,68.40
2022-12-26T05:30:45.270Z,68.70
2022-12-26T05:33:05.789Z,68.80
2022-12-26T05:35:07.652Z,68.60
2022-12-26T05:37:09.403Z,68.60
2022-12-26T05:39:11.184Z,68.40
2022-12-26T05:41:12.759Z,68.60
2022-12-26T05:43:14.407Z,68.60
2022-12-26T05:45:16.077Z,68.60
2022-12-26T05:47:17.680Z,68.50
2022-12-26T05:49:19.304Z,68.40
2022-12-26T05:51:21.023Z,68.40
2022-12-26T05:53:23.822Z,68.10
2022-12-26T05:55:25.718Z,68.50
2022-12-26T05:57:27.464Z,68.50
2022-12-26T05:59:29.327Z,68.40
2022-12-26T06:01:31.240Z,68.40
2022-12-26T06:03:33.862Z,68.40
2022-12-26T06:05:35.584Z,68.40
2022-12-26T06:07:37.247Z,68.50
2022-12-26T06:09:39.342Z,68.40
2022-12-26T06:11:46.918Z,68.40
2022-12-26T06:13:50.494Z,68.50
2022-12-26T06:15:52.233Z,68.20
2022-12-26T06:17:54.502Z,68.30
2022-12-26T06:19:56.107Z,68.50
2022-12-26T06:21:57.708Z,68.40
2022-12-26T06:23:59.362Z,68.40
2022-12-26T06:26:01.122Z,68.50
2022-12-26T06:28:02.816Z,68.50
2022-12-26T06:30:04.808Z,68.30
2022-12-26T06:32:06.434Z,68.20
2022-12-26T06:34:10.692Z,68.40
2022-12-26T06:36:14.039Z,68.40
2022-12-26T06:38:15.652Z,68.50
2022-12-26T06:40:17.302Z,68.70
2022-12-26T06:42:18.958Z,68.50
2022-12-26T06:44:20.672Z,68.70
2022-12-26T06:46:23.661Z,68.50
2022-12-26T06:48:25.888Z,68.50
2022-12-26T06:50:27.897Z,68.80
2022-12-26T06:52:29.564Z,68.70
2022-12-26T06:54:31.196Z,68.60
2022-12-26T06:56:34.178Z,68.60
2022-12-26T06:58:36.245Z,68.80
2022-12-26T07:00:37.966Z,68.70
2022-12-26T07:02:39.719Z,68.80
2022-12-26T07:04:41.406Z,68.80
2022-12-26T07:06:43.033Z,68.70
2022-12-26T07:08:44.686Z,68.70
2022-12-26T07:10:46.308Z,68.80
2022-12-26T07:12:48.381Z,69.00
2022-12-26T07:14:50.059Z,69.10
2022-12-26T07:16:51.685Z,69.20
2022-12-26T07:18:54.194Z,69.30
2022-12-26T07:20:55.883Z,69.20
2022-12-26T07:22:57.607Z,69.40
2022-12-26T07:24:59.302Z,69.50
2022-12-26T07:27:00.971Z,69.60
2022-12-26T07:29:02.658Z,69.70
2022-12-26T07:31:04.628Z,70.50
2022-12-26T07:33:06.270Z,69.80
2022-12-26T07:35:08.110Z,69.80
2022-12-26T07:37:09.766Z,70.00
2022-12-26T07:39:13.255Z,70.00
2022-12-26T07:41:50.639Z,70.00
2022-12-26T07:43:52.548Z,70.00
2022-12-26T07:45:57.565Z,70.10
2022-12-26T07:47:59.273Z,70.10
2022-12-26T07:50:00.861Z,70.20
2022-12-26T07:52:03.267Z,70.30
2022-12-26T07:54:10.740Z,70.30
2022-12-26T07:56:13.079Z,70.40
2022-12-26T07:58:14.702Z,70.30
2022-12-26T08:00:16.890Z,70.30
2022-12-26T08:02:18.669Z,70.40
2022-12-26T08:04:20.450Z,70.40
2022-12-26T08:06:22.121Z,70.50
2022-12-26T08:08:23.761Z,70.50
2022-12-26T08:10:25.459Z,70.50
2022-12-26T08:12:27.135Z,70.50
2022-12-26T08:14:29.241Z,70.60
2022-12-26T08:16:31.421Z,70.60
2022-12-26T08:18:33.650Z,70.90
2022-12-26T08:20:36.548Z,70.90
2022-12-26T08:22:38.220Z,70.60
2022-12-26T08:24:39.838Z,70.50
2022-12-26T08:26:41.627Z,70.50
2022-12-26T08:28:43.243Z,70.50
2022-12-26T08:30:45.500Z,70.60
2022-12-26T08:32:47.190Z,70.60
2022-12-26T08:34:48.926Z,70.50
2022-12-26T08:36:51.774Z,70.70
2022-12-26T08:38:53.656Z,70.70
2022-12-26T08:40:56.206Z,70.80
2022-12-26T08:43:21.338Z,70.80
2022-12-26T08:45:19.792Z,70.90
2022-12-26T08:47:21.960Z,71.10
2022-12-26T08:49:23.599Z,71.10
2022-12-26T08:51:25.220Z,71.10
2022-12-26T08:53:28.952Z,71.10
2022-12-26T08:55:30.581Z,71.10
2022-12-26T08:57:32.217Z,71.10
2022-12-26T08:59:33.886Z,71.20
2022-12-26T09:01:35.582Z,71.30
2022-12-26T09:03:37.666Z,71.50
2022-12-26T09:05:39.354Z,71.50
2022-12-26T09:07:41.046Z,71.60
2022-12-26T09:09:45.040Z,71.60
2022-12-26T09:11:46.660Z,71.50
2022-12-26T09:13:48.746Z,71.70
2022-12-26T09:15:50.421Z,71.70
2022-12-26T09:17:52.083Z,71.60
2022-12-26T09:19:53.833Z,71.40
2022-12-26T09:22:15.790Z,71.50
2022-12-26T09:24:18.225Z,71.70
2022-12-26T09:26:20.171Z,71.60
2022-12-26T09:28:22.051Z,71.70
2022-12-26T09:30:23.780Z,71.70
2022-12-26T09:32:25.508Z,71.70
2022-12-26T09:34:27.165Z,71.80
2022-12-26T09:36:30.260Z,71.80
2022-12-26T09:38:31.960Z,71.80
2022-12-26T09:40:42.856Z,71.80
2022-12-26T09:42:52.816Z,71.70
2022-12-26T09:45:04.580Z,71.80
2022-12-26T09:47:18.304Z,71.90
2022-12-26T09:49:21.177Z,71.90
2022-12-26T09:51:23.619Z,72.00
2022-12-26T09:53:25.221Z,72.00
2022-12-26T09:55:38.993Z,72.00
2022-12-26T09:57:43.579Z,72.10
2022-12-26T10:00:05.510Z,72.10
2022-12-26T10:02:18.457Z,72.20
2022-12-26T10:04:28.960Z,72.10
2022-12-26T10:06:37.956Z,71.90
2022-12-26T10:08:50.522Z,71.90
2022-12-26T10:11:01.349Z,71.90
2022-12-26T10:13:11.500Z,71.70
2022-12-26T10:15:19.559Z,71.70
2022-12-26T10:17:40.630Z,71.60
2022-12-26T10:19:42.928Z,71.70
2022-12-26T10:22:03.849Z,71.70
2022-12-26T10:24:16.389Z,71.70
2022-12-26T10:26:18.038Z,71.70
2022-12-26T10:28:34.246Z,71.80
2022-12-26T10:30:41.680Z,71.80
2022-12-26T10:32:45.474Z,71.60
2022-12-26T10:34:48.448Z,71.70
2022-12-26T10:36:50.200Z,71.70
2022-12-26T10:38:53.234Z,71.60
2022-12-26T10:40:56.539Z,71.80
2022-12-26T10:43:00.399Z,72.00
2022-12-26T10:45:12.295Z,71.90
2022-12-26T10:47:13.890Z,71.90
2022-12-26T10:49:18.102Z,71.80
2022-12-26T10:51:19.884Z,72.00
2022-12-26T10:53:21.626Z,71.90
2022-12-26T10:55:29.719Z,71.60
2022-12-26T10:57:35.689Z,71.60
2022-12-26T10:59:43.398Z,71.60
2022-12-26T11:01:47.957Z,71.70
2022-12-26T11:03:56.755Z,71.70
2022-12-26T11:06:08.408Z,71.70
2022-12-26T11:08:17.191Z,71.70
2022-12-26T11:10:20.810Z,71.80
2022-12-26T11:12:42.725Z,71.90
2022-12-26T11:14:45.661Z,71.80
2022-12-26T11:16:48.772Z,71.70
2022-12-26T11:18:52.095Z,71.70
2022-12-26T11:20:54.091Z,71.70
2022-12-26T11:23:12.512Z,71.70
2022-12-26T11:25:23.379Z,71.80
2022-12-26T11:27:25.087Z,72.10
2022-12-26T11:29:27.073Z,72.10
2022-12-26T11:31:30.904Z,72.00
2022-12-26T11:33:35.611Z,72.00
2022-12-26T11:35:38.091Z,72.00
2022-12-26T11:37:44.408Z,71.90
2022-12-26T11:39:49.809Z,72.00
2022-12-26T11:41:52.101Z,72.80
2022-12-26T11:43:54.424Z,71.90
2022-12-26T11:45:56.384Z,71.90
2022-12-26T11:48:00.359Z,71.90
2022-12-26T11:50:10.099Z,72.10
2022-12-26T11:52:30.373Z,72.10
2022-12-26T11:54:36.602Z,72.40
2022-12-26T11:56:41.703Z,72.50
2022-12-26T11:59:09.166Z,72.10
2022-12-26T12:01:13.179Z,72.20
2022-12-26T12:03:21.092Z,72.20
2022-12-26T12:05:39.080Z,72.10
2022-12-26T12:07:40.755Z,72.00
2022-12-26T12:09:52.697Z,72.00
2022-12-26T12:11:57.426Z,72.00
2022-12-26T12:14:02.223Z,72.10
2022-12-26T12:16:13.121Z,72.10
2022-12-26T12:18:33.235Z,72.10
2022-12-26T12:20:53.924Z,72.30
2022-12-26T12:23:07.812Z,72.40
2022-12-26T12:25:16.471Z,72.40
2022-12-26T12:27:18.151Z,72.40
2022-12-26T12:29:38.708Z,72.20
2022-12-26T12:31:43.407Z,72.50
2022-12-26T12:33:51.385Z,72.50
2022-12-26T12:36:08.379Z,72.60
2022-12-26T12:38:28.564Z,72.70
2022-12-26T12:40:36.105Z,72.70
2022-12-26T12:42:37.737Z,72.60
2022-12-26T12:45:02.428Z,72.50
2022-12-26T12:47:11.026Z,72.60
2022-12-26T12:49:23.868Z,72.70
2022-12-26T12:51:28.398Z,72.70
2022-12-26T12:53:45.147Z,72.80
2022-12-26T12:56:05.624Z,72.60
2022-12-26T12:58:25.857Z,72.70
2022-12-26T13:00:41.967Z,72.70
2022-12-26T13:02:43.938Z,72.70
2022-12-26T13:04:47.812Z,72.70
2022-12-26T13:06:52.121Z,72.70
2022-12-26T13:08:56.057Z,72.70
2022-12-26T13:11:00.576Z,72.80
2022-12-26T13:13:08.439Z,72.80
2022-12-26T13:15:23.559Z,72.80
2022-12-26T13:17:27.989Z,72.70
2022-12-26T13:19:51.724Z,72.80
2022-12-26T13:21:56.630Z,72.90
2022-12-26T13:24:23.330Z,72.90
2022-12-26T13:26:34.764Z,72.90
2022-12-26T13:28:39.537Z,72.90
2022-12-26T13:30:42.118Z,72.80
2022-12-26T13:32:46.816Z,73.00
2022-12-26T13:34:49.002Z,73.00
2022-12-26T13:36:52.529Z,73.00
2022-12-26T13:38:56.884Z,72.70
2022-12-26T13:41:20.796Z,72.50
2022-12-26T13:43:44.421Z,72.70
2022-12-26T13:45:51.162Z,72.60
2022-12-26T13:47:52.811Z,72.70
2022-12-26T13:49:54.522Z,72.60
2022-12-26T13:51:57.912Z,72.80
2022-12-26T13:54:03.137Z,72.60
2022-12-26T13:56:12.611Z,72.50
2022-12-26T13:58:29.886Z,72.70
2022-12-26T14:00:51.969Z,72.60
2022-12-26T14:03:19.097Z,72.50
2022-12-26T14:05:24.311Z,72.60
2022-12-26T14:07:28.921Z,72.40
2022-12-26T14:09:45.952Z,72.30
2022-12-26T14:12:06.296Z,72.50
2022-12-26T14:14:07.986Z,72.70
2022-12-26T14:16:23.943Z,72.70
2022-12-26T14:18:36.518Z,72.60
2022-12-26T14:20:56.728Z,72.60
2022-12-26T14:23:10.513Z,72.60
2022-12-26T14:25:21.636Z,72.50
2022-12-26T14:27:35.620Z,72.50
2022-12-26T14:29:43.437Z,72.50
2022-12-26T14:32:03.459Z,72.50
2022-12-26T14:34:25.363Z,72.50
2022-12-26T14:36:30.030Z,72.50
2022-12-26T14:38:31.702Z,72.50
2022-12-26T14:40:35.432Z,72.50
2022-12-26T14:43:10.929Z,72.50
2022-12-26T14:45:32.648Z,72.60
2022-12-26T14:47:45.559Z,72.50
2022-12-26T14:49:47.393Z,72.40
2022-12-26T14:51:49.516Z,72.50
2022-12-26T14:54:11.509Z,72.50
2022-12-26T14:56:19.473Z,72.50
2022-12-26T14:58:21.145Z,72.50
2022-12-26T15:00:22.840Z,72.50
2022-12-26T15:02:24.559Z,72.60
2022-12-26T15:04:41.939Z,72.70
2022-12-26T15:07:05.942Z,72.80
2022-12-26T15:09:11.205Z,72.80
2022-12-26T15:11:33.333Z,72.90
2022-12-26T15:13:50.209Z,72.70
2022-12-26T15:16:02.653Z,72.50
2022-12-26T15:18:13.689Z,72.50
2022-12-26T15:20:18.407Z,72.50
2022-12-26T15:22:23.152Z,72.50
2022-12-26T15:25:08.215Z,72.50
2022-12-26T15:26:58.579Z,72.60
2022-12-26T15:29:03.276Z,72.40
2022-12-26T15:31:23.423Z,72.40
2022-12-26T15:33:46.563Z,72.50
2022-12-26T15:36:01.132Z,72.70
2022-12-26T15:38:10.750Z,72.80
2022-12-26T15:40:15.310Z,72.90
2022-12-26T15:42:36.575Z,72.90
2022-12-26T15:44:49.355Z,72.90
2022-12-26T15:47:01.886Z,72.50
2022-12-26T15:49:06.534Z,72.50
2022-12-26T15:51:11.151Z,72.60
2022-12-26T15:53:18.939Z,72.60
2022-12-26T15:55:39.474Z,73.00
2022-12-26T15:58:01.601Z,72.50
2022-12-26T16:00:15.669Z,72.50
2022-12-26T16:02:26.982Z,72.30
2022-12-26T16:04:40.607Z,72.30
2022-12-26T16:07:02.673Z,72.40
2022-12-26T16:09:13.565Z,72.30
2022-12-26T16:11:15.286Z,72.10
2022-12-26T16:13:22.756Z,72.30
2022-12-26T16:15:25.260Z,72.40
2022-12-26T16:17:27.989Z,72.30
2022-12-26T16:19:29.689Z,72.30
2022-12-26T16:21:50.185Z,72.20
2022-12-26T16:23:53.190Z,72.10
2022-12-26T16:25:55.976Z,72.20
2022-12-26T16:27:59.228Z,72.30
2022-12-26T16:30:11.371Z,72.40
2022-12-26T16:32:16.426Z,72.40
2022-12-26T16:34:19.244Z,72.20
2022-12-26T16:36:22.230Z,72.10
2022-12-26T16:38:26.574Z,72.00
2022-12-26T16:40:29.893Z,72.10
2022-12-26T16:42:32.208Z,72.00
2022-12-26T16:44:33.874Z,72.10
2022-12-26T16:46:35.629Z,72.20
2022-12-26T16:48:38.080Z,72.30
2022-12-26T16:50:46.027Z,72.40
2022-12-26T16:52:47.795Z,72.60
2022-12-26T16:54:49.450Z,72.80
2022-12-26T16:56:55.842Z,72.80
2022-12-26T16:59:02.732Z,72.60
2022-12-26T17:01:10.343Z,72.50
2022-12-26T17:03:24.636Z,72.50
2022-12-26T17:05:31.366Z,72.50
2022-12-26T17:07:34.920Z,72.40
2022-12-26T17:09:44.131Z,72.40
2022-12-26T17:11:56.215Z,72.30
2022-12-26T17:13:58.748Z,72.30
2022-12-26T17:16:01.656Z,72.30
2022-12-26T17:18:22.407Z,72.20
2022-12-26T17:20:24.492Z,72.30
2022-12-26T17:22:29.227Z,72.30
2022-12-26T17:24:30.970Z,72.30
2022-12-26T17:26:32.888Z,72.30
2022-12-26T17:28:37.155Z,72.30
2022-12-26T17:30:40.281Z,72.20
2022-12-26T17:32:45.723Z,72.20
2022-12-26T17:34:47.664Z,72.30
2022-12-26T17:39:21.733Z,72.00
2022-12-26T17:41:23.368Z,72.00
2022-12-26T17:43:29.309Z,72.20
2022-12-26T17:45:31.141Z,72.20
2022-12-26T17:47:32.793Z,72.30
2022-12-26T17:49:34.585Z,72.10
2022-12-26T17:51:36.274Z,72.00
2022-12-26T17:53:40.411Z,72.00
2022-12-26T17:55:42.068Z,72.10
2022-12-26T17:57:43.802Z,72.00
2022-12-26T17:59:55.676Z,72.00
2022-12-26T18:01:57.553Z,71.80
2022-12-26T18:04:08.616Z,71.70
2022-12-26T18:06:21.039Z,71.40
2022-12-26T18:08:34.030Z,71.40
2022-12-26T18:10:36.331Z,71.40
2022-12-26T18:12:38.045Z,71.30
2022-12-26T18:14:39.795Z,71.40
2022-12-26T18:16:41.512Z,71.50
2022-12-26T18:18:44.348Z,71.50
2022-12-26T18:20:46.246Z,71.50
2022-12-26T18:22:47.877Z,71.50
2022-12-26T18:24:49.634Z,71.60
2022-12-26T18:26:51.264Z,71.60
2022-12-26T18:28:53.323Z,71.60
2022-12-26T18:30:56.969Z,71.60
2022-12-26T18:32:58.821Z,71.70
2022-12-26T18:35:00.662Z,71.60
2022-12-26T18:37:02.482Z,71.60
2022-12-26T18:39:04.990Z,71.50
2022-12-26T18:41:07.274Z,71.60
2022-12-26T18:43:09.302Z,71.60
2022-12-26T18:45:10.960Z,71.70
2022-12-26T18:47:13.568Z,71.60
2022-12-26T18:49:17.098Z,71.60
2022-12-26T18:51:19.696Z,71.60
2022-12-26T18:53:21.442Z,71.70
2022-12-26T18:55:23.891Z,71.80
2022-12-26T18:57:25.471Z,71.70
2022-12-26T18:59:27.160Z,71.70
2022-12-26T19:01:28.922Z,71.60
2022-12-26T19:03:30.787Z,71.60
2022-12-26T19:05:33.844Z,71.70
2022-12-26T19:07:35.574Z,71.50
2022-12-26T19:09:37.288Z,71.50
2022-12-26T19:11:39.453Z,71.60
2022-12-26T19:13:41.631Z,71.50
2022-12-26T19:15:47.003Z,71.20
2022-12-26T19:17:48.966Z,71.20
2022-12-26T19:19:50.740Z,71.40
2022-12-26T19:21:52.751Z,71.50
2022-12-26T19:23:54.429Z,71.60
2022-12-26T19:25:58.518Z,71.60
2022-12-26T19:28:00.275Z,71.60
2022-12-26T19:30:01.933Z,71.40
2022-12-26T19:32:03.765Z,71.10
2022-12-26T19:34:05.554Z,71.20
2022-12-26T19:36:07.670Z,71.20
2022-12-26T19:38:09.364Z,71.20
2022-12-26T19:40:11.802Z,71.40
2022-12-26T19:42:13.460Z,71.40
2022-12-26T19:44:15.204Z,71.30
2022-12-26T19:46:17.063Z,71.20
2022-12-26T19:48:18.772Z,71.40
2022-12-26T19:50:20.551Z,71.30
2022-12-26T19:52:22.283Z,71.20
2022-12-26T19:54:24.103Z,71.10
2022-12-26T19:56:27.196Z,71.00
2022-12-26T19:58:34.597Z,70.80
2022-12-26T20:00:47.686Z,70.70
2022-12-26T20:02:50.372Z,70.70
2022-12-26T20:04:53.315Z,70.80
2022-12-26T20:06:59.023Z,70.80
2022-12-26T20:09:01.996Z,70.70
2022-12-26T20:11:07.939Z,70.50
2022-12-26T20:13:09.647Z,70.70
2022-12-26T20:15:14.268Z,70.70
2022-12-26T20:17:15.975Z,71.50
2022-12-26T20:19:19.937Z,70.60
2022-12-26T20:21:23.684Z,70.70
2022-12-26T20:23:25.508Z,70.60
2022-12-26T20:25:28.988Z,70.50
2022-12-26T20:27:32.630Z,70.40
2022-12-26T20:29:34.408Z,70.50
2022-12-26T20:31:36.943Z,70.50
2022-12-26T20:33:40.211Z,70.40
2022-12-26T20:35:41.900Z,70.60
2022-12-26T20:37:43.713Z,70.50
2022-12-26T20:39:45.331Z,70.40
2022-12-26T20:41:47.105Z,70.50
2022-12-26T20:43:49.306Z,70.40
2022-12-26T20:45:51.181Z,70.30
2022-12-26T20:47:52.905Z,70.50
2022-12-26T20:49:54.692Z,70.70
2022-12-26T20:51:56.408Z,70.60
2022-12-26T20:53:58.865Z,70.50
2022-12-26T20:56:00.885Z,70.60
2022-12-26T20:58:02.925Z,70.20
2022-12-26T21:00:05.378Z,70.20
2022-12-26T21:02:07.166Z,69.30
2022-12-26T21:04:15.802Z,69.20
2022-12-26T21:06:19.228Z,69.60
2022-12-26T21:08:20.947Z,70.00
2022-12-26T21:10:22.641Z,70.10
2022-12-26T21:12:24.318Z,70.10
2022-12-26T21:14:26.115Z,70.20
2022-12-26T21:16:29.302Z,70.30
2022-12-26T21:18:31.027Z,70.00
2022-12-26T21:20:32.660Z,69.90
2022-12-26T21:22:34.323Z,70.00
2022-12-26T21:24:36.022Z,70.00
2022-12-26T21:26:38.985Z,70.00
2022-12-26T21:28:41.258Z,70.10
2022-12-26T21:30:45.949Z,70.20
2022-12-26T21:32:47.777Z,70.40
2022-12-26T21:34:49.447Z,70.40
2022-12-26T21:37:09.658Z,70.50
2022-12-26T21:39:12.163Z,70.30
2022-12-26T21:41:14.432Z,70.40
2022-12-26T21:43:16.627Z,70.00
2022-12-26T21:45:18.368Z,70.30
2022-12-26T21:47:20.113Z,70.50
2022-12-26T21:49:21.793Z,70.50
2022-12-26T21:51:26.756Z,70.60
2022-12-26T21:53:28.480Z,70.60
2022-12-26T21:55:31.225Z,70.50
2022-12-26T21:57:34.965Z,70.40
2022-12-26T21:59:55.173Z,70.50
2022-12-26T22:01:56.961Z,70.00
2022-12-26T22:04:17.472Z,69.70
2022-12-26T22:06:19.169Z,69.80
2022-12-26T22:08:21.156Z,69.60
2022-12-26T22:10:42.253Z,69.50
2022-12-26T22:12:58.803Z,69.40
2022-12-26T22:15:00.776Z,69.50
2022-12-26T22:17:02.439Z,69.20
2022-12-26T22:19:04.067Z,69.00
2022-12-26T22:21:07.945Z,69.10
2022-12-26T22:23:09.588Z,68.90
2022-12-26T22:25:11.290Z,69.00
2022-12-26T22:27:12.911Z,69.00
2022-12-26T22:29:14.590Z,68.80
2022-12-26T22:31:20.459Z,69.10
2022-12-26T22:33:22.267Z,69.20
2022-12-26T22:35:23.936Z,69.20
2022-12-26T22:37:25.590Z,69.40
2022-12-26T22:39:27.213Z,69.40
2022-12-26T22:41:29.050Z,69.40
2022-12-26T22:43:32.210Z,69.40
2022-12-26T22:45:33.859Z,69.10
2022-12-26T22:47:35.566Z,69.20
2022-12-26T22:49:37.285Z,69.10
2022-12-26T22:51:39.333Z,68.90
2022-12-26T22:53:42.358Z,68.70
2022-12-26T22:55:48.476Z,68.70
2022-12-26T22:57:52.694Z,68.60
2022-12-26T23:00:08.113Z,68.00
2022-12-26T23:02:10.373Z,67.50
2022-12-26T23:04:12.741Z,67.60
2022-12-26T23:06:23.415Z,67.50
2022-12-26T23:08:26.687Z,67.80
2022-12-26T23:10:28.643Z,67.80
2022-12-26T23:12:45.655Z,68.00
2022-12-26T23:14:47.381Z,67.70
2022-12-26T23:16:52.435Z,67.80
2022-12-26T23:19:15.513Z,67.50
2022-12-26T23:21:39.163Z,67.70
2022-12-26T23:23:40.958Z,67.80
2022-12-26T23:25:42.617Z,67.80
2022-12-26T23:28:02.845Z,67.90
2022-12-26T23:30:20.142Z,68.00
2022-12-26T23:32:21.787Z,67.90
2022-12-26T23:34:23.724Z,67.90
2022-12-26T23:36:25.348Z,67.90
2022-12-26T23:38:27.120Z,68.10
2022-12-26T23:40:28.748Z,67.60
2022-12-26T23:42:30.598Z,67.60
2022-12-26T23:44:32.231Z,67.30
2022-12-26T23:46:34.123Z,67.40
2022-12-26T23:48:35.775Z,67.70
2022-12-26T23:50:37.525Z,67.60
2022-12-26T23:52:39.323Z,67.90
2022-12-26T23:54:40.984Z,67.70
2022-12-26T23:56:42.626Z,67.80
2022-12-26T23:58:44.543Z,67.70
